Alcalde, Kentucky
Current Conditions -  °F | °C
As of 6:35 PM on Friday 31 Oct 2014 (Local Time) from KSME Reporting Station
Light Rain Light Rain  
Wind Chill: 26°   Ceiling: 1400
Heat Index: 36°   Visibility: 10mi
Dew Point: 34°   Wind: 16mph
Humidity: 93%   Direction: 10°N
Pressure: 30.02"   Gusts: 28mph
Location:  37.0813°N, 84.4741°W
Report Text: KSME 312235Z AUTO 01014G24KT 10SM -RA OVC014 02/01 A3002 RMK AO2
Loading
Personal Weather Stations






























Interactive Weather Map
Tropical Storm Tracking
New forecast layout! Learn more

10-Day Weather Forecast

Advertisements
Track Severe Weather on mobile